Time;durP1;ratioP1;P1;durP2;ratioP2;P2;SDS_P1;SDS_P2;PMS_P1;PMS_P2;Temp;Humidity;BMP_temperature;BMP_pressure;BME280_temperature;BME280_humidity;BME280_pressure;Samples;Min_cycle;Max_cycle;Signal;HPM_P1;HPM_P2
2022/01/25 00:25:56;;;;;;;;;113.00;86.25;;;;;8.60;63.41;102921.84;5083801;28;62153;-85
2022/01/25 00:28:24;;;;;;;;;106.00;85.25;;;;;8.64;62.31;102930.88;5083611;28;62124;-85
2022/01/25 00:31:10;;;;;;;;;105.67;79.00;;;;;8.60;62.54;102929.69;5083612;27;61901;-85
2022/01/25 00:33:38;;;;;;;;;104.67;80.33;;;;;8.58;62.77;102931.25;5084434;27;61826;-85
2022/01/25 00:36:10;;;;;;;;;106.67;80.00;;;;;8.56;62.74;102923.25;5082186;28;61924;-85
2022/01/25 00:38:35;;;;;;;;;100.33;72.00;;;;;8.57;62.95;102922.50;5082111;28;63978;-84
2022/01/25 00:41:01;;;;;;;;;95.00;70.00;;;;;8.56;62.40;102925.88;5084134;28;62330;-85
2022/01/25 00:43:27;;;;;;;;;94.67;69.67;;;;;8.55;62.68;102923.16;5084211;28;61756;-85
2022/01/25 00:45:57;;;;;;;;;97.00;71.00;;;;;8.56;62.37;102922.34;5083256;27;62093;-85
2022/01/25 00:53:59;;;;;;;;;90.00;69.00;;;;;8.53;62.08;102920.41;5083951;28;61931;-85
2022/01/25 00:56:29;;;;;;;;;85.33;65.00;;;;;9.10;61.29;102908.63;5083367;28;61887;-85
2022/01/25 00:58:55;;;;;;;;;90.67;69.00;;;;;9.27;59.98;102900.47;5081534;28;63516;-85
2022/01/25 01:01:21;;;;;;;;;94.67;70.33;;;;;9.40;59.73;102910.28;5081828;28;61761;-85
2022/01/25 01:03:47;;;;;;;;;93.00;69.33;;;;;9.38;59.19;102907.53;5083085;28;61772;-86
2022/01/25 01:06:14;;;;;;;;;87.00;68.00;;;;;9.35;58.78;102896.78;5081962;28;62075;-85
2022/01/25 01:08:40;;;;;;;;;97.67;69.33;;;;;8.69;60.96;102911.25;5082900;28;62714;-85
2022/01/25 01:11:09;;;;;;;;;90.67;67.33;;;;;8.54;61.00;102914.34;5083470;28;61977;-85
2022/01/25 01:48:07;;;;;;;;;87.67;69.00;;;;;8.17;62.57;102937.28;5083151;28;62070;-85
2022/01/25 01:50:35;;;;;;;;;81.33;63.67;;;;;8.07;62.66;102932.00;5082733;27;62712;-86
2022/01/25 01:53:05;;;;;;;;;84.00;65.00;;;;;7.97;63.08;102938.13;5082696;28;61948;-84
2022/01/25 01:55:32;;;;;;;;;84.00;64.00;;;;;7.84;63.02;102934.25;5082420;27;62086;-85
2022/01/25 01:57:58;;;;;;;;;87.00;62.33;;;;;7.81;63.35;102939.22;5082617;28;62039;-85
2022/01/25 02:00:39;;;;;;;;;81.67;58.67;;;;;7.76;63.55;102942.31;5082059;28;62821;-85
2022/01/25 02:03:06;;;;;;;;;85.67;61.00;;;;;7.64;63.97;102943.81;5081307;28;61941;-85
2022/01/25 02:05:32;;;;;;;;;81.67;61.00;;;;;7.63;63.45;102944.63;5081370;28;61858;-85
2022/01/25 02:07:59;;;;;;;;;95.33;69.67;;;;;7.59;63.92;102945.13;5083018;27;61935;-85
2022/01/25 02:10:24;;;;;;;;;98.67;71.00;;;;;7.55;63.91;102940.38;5081983;28;61999;-85
2022/01/25 02:12:51;;;;;;;;;98.00;73.33;;;;;7.42;63.81;102938.34;5098040;27;61933;-85
2022/01/25 02:15:18;;;;;;;;;101.67;74.67;;;;;7.37;64.13;102940.53;5079915;28;61803;-85
2022/01/25 02:23:11;;;;;;;;;99.00;71.33;;;;;8.08;61.66;102944.31;5082728;28;61925;-85
2022/01/25 02:25:37;;;;;;;;;92.67;71.00;;;;;8.16;61.70;102939.75;5080537;28;62090;-84
2022/01/25 02:28:02;;;;;;;;;88.67;68.67;;;;;8.23;61.43;102934.28;5082445;27;61923;-85
2022/01/25 02:30:28;;;;;;;;;95.33;67.67;;;;;8.29;60.52;102934.84;5079755;28;63141;-85
2022/01/25 02:32:53;;;;;;;;;87.33;64.67;;;;;8.35;61.09;102937.97;5082326;28;62046;-85
2022/01/25 02:35:19;;;;;;;;;85.00;63.00;;;;;8.33;60.94;102930.75;5082121;28;61698;-85
2022/01/25 02:37:44;;;;;;;;;89.33;64.33;;;;;8.31;60.30;102932.34;5094615;27;61770;-85
2022/01/25 02:40:09;;;;;;;;;96.33;69.33;;;;;8.24;60.79;102946.56;5081670;28;61875;-85
2022/01/25 02:42:35;;;;;;;;;89.67;68.00;;;;;8.14;60.95;102943.91;5081871;28;62028;-85
2022/01/25 02:45:01;;;;;;;;;88.00;65.33;;;;;8.06;60.92;102945.88;5081922;28;61971;-85
2022/01/25 02:50:10;;;;;;;;;88.67;66.00;;;;;8.16;61.24;102943.31;5081657;28;61811;-85
2022/01/25 02:52:36;;;;;;;;;89.00;67.00;;;;;8.24;60.59;102943.97;5081994;27;61739;-85
2022/01/25 02:55:02;;;;;;;;;90.00;68.00;;;;;8.27;60.82;102931.16;5097481;27;61869;-84
2022/01/25 02:57:27;;;;;;;;;88.67;63.00;;;;;8.31;60.56;102940.19;5080136;28;62011;-84
2022/01/25 02:59:53;;;;;;;;;87.00;64.33;;;;;8.34;60.09;102937.84;5081357;28;61830;-85
2022/01/25 03:02:18;;;;;;;;;77.00;63.00;;;;;8.32;60.06;102931.56;5081918;28;61898;-85
2022/01/25 03:04:44;;;;;;;;;87.67;64.33;;;;;8.27;60.12;102928.56;5097551;27;61867;-84
2022/01/25 03:07:10;;;;;;;;;87.00;64.33;;;;;8.24;60.36;102936.09;5080509;28;61933;-83
2022/01/25 03:09:37;;;;;;;;;86.00;64.00;;;;;8.28;60.74;102932.97;5080857;27;61932;-85
2022/01/25 03:12:05;;;;;;;;;72.67;60.67;;;;;8.27;59.95;102936.41;5081964;27;61716;-85
2022/01/25 03:14:34;;;;;;;;;75.33;58.67;;;;;8.29;60.59;102934.84;5081519;28;61768;-85
2022/01/25 03:19:51;;;;;;;;;80.33;61.67;;;;;8.35;60.13;102927.50;5081178;28;62833;-85
2022/01/25 03:22:32;;;;;;;;;75.67;58.33;;;;;8.39;59.85;102932.22;5081467;28;62333;-85
2022/01/25 03:24:58;;;;;;;;;77.00;60.00;;;;;8.39;60.15;102926.97;5081562;27;62213;-85
2022/01/25 03:27:23;;;;;;;;;77.67;60.00;;;;;8.39;59.90;102919.13;5082469;28;62222;-85
2022/01/25 03:29:49;;;;;;;;;73.00;60.00;;;;;8.37;59.46;102911.94;5084230;28;61890;-85
2022/01/25 03:32:14;;;;;;;;;72.33;57.00;;;;;8.39;59.83;102913.91;5085192;28;61948;-85
2022/01/25 03:34:40;;;;;;;;;78.00;57.67;;;;;8.36;59.63;102913.66;5084865;28;61891;-84
2022/01/25 03:37:05;;;;;;;;;84.33;62.33;;;;;8.39;60.11;102915.59;5083099;28;61731;-85
2022/01/25 03:39:31;;;;;;;;;77.00;60.00;;;;;8.28;59.54;102895.44;5099799;27;62631;-85
2022/01/25 03:41:56;;;;;;;;;58.00;45.33;;;;;8.31;60.10;102904.50;5085150;28;61871;-85
2022/01/25 03:44:22;;;;;;;;;77.33;58.00;;;;;8.36;59.70;102903.19;5100667;27;62024;-84
2022/01/25 03:51:57;;;;;;;;;78.67;58.00;;;;;8.44;58.77;102909.13;5085085;28;62154;-85
2022/01/25 03:54:23;;;;;;;;;70.00;55.00;;;;;8.41;59.31;102903.63;5083427;28;61836;-85
2022/01/25 03:56:49;;;;;;;;;77.67;58.00;;;;;8.34;58.89;102916.91;5084139;28;61773;-85
2022/01/25 03:59:14;;;;;;;;;50.67;38.00;;;;;8.33;59.19;102913.41;5084453;28;63088;-85
2022/01/25 04:01:40;;;;;;;;;75.00;56.00;;;;;8.28;59.37;102919.91;5082458;28;62057;-85
2022/01/25 04:04:10;;;;;;;;;72.33;55.33;;;;;8.16;59.60;102918.81;5084978;28;61939;-84
2022/01/25 04:06:37;;;;;;;;;66.00;51.67;;;;;8.16;59.03;102918.81;5083057;28;61978;-85
2022/01/25 04:09:06;;;;;;;;;70.00;52.00;;;;;8.17;59.71;102913.72;5082361;28;64620;-84
2022/01/25 04:11:32;;;;;;;;;70.67;51.00;;;;;8.22;58.65;102927.22;5084702;27;62139;-85
2022/01/25 04:13:58;;;;;;;;;75.67;56.00;;;;;8.17;59.59;102929.41;5084474;28;61886;-85
2022/01/25 04:16:37;;;;;;;;;73.67;57.33;;;;;8.10;60.03;102923.53;5084055;27;61829;-85
2022/01/25 04:19:15;;;;;;;;;53.33;41.67;;;;;8.20;59.83;102923.53;5082679;28;62250;-85
2022/01/25 04:24:40;;;;;;;;;72.33;55.67;;;;;8.23;59.55;102926.44;5084365;28;61996;-85
2022/01/25 04:24:55;;;;;;;;;81.00;56.00;;;;;8.28;60.02;102925.13;5084112;28;61863;-85
2022/01/25 04:27:21;;;;;;;;;75.00;53.00;;;;;8.33;59.38;102928.16;5082418;28;62126;-85
2022/01/25 04:29:47;;;;;;;;;74.00;55.33;;;;;8.18;59.74;102923.44;5081672;28;65114;-85
2022/01/25 04:32:14;;;;;;;;;61.67;48.67;;;;;8.16;59.73;102921.44;5084266;28;61910;-85
2022/01/25 04:34:44;;;;;;;;;69.67;47.67;;;;;8.17;59.63;102926.81;5082899;28;61807;-83
2022/01/25 04:51:04;;;;;;;;;65.33;49.33;;;;;7.84;59.53;102940.41;5083518;28;61891;-84
2022/01/25 04:56:07;;;;;;;;;61.33;47.33;;;;;7.92;59.80;102947.22;5083143;28;61982;-85
2022/01/25 04:58:50;;;;;;;;;74.00;51.00;;;;;7.94;59.47;102944.75;5082830;28;61850;-85
2022/01/25 05:01:17;;;;;;;;;63.33;45.33;;;;;8.01;59.13;102948.84;5081111;28;64762;-85
2022/01/25 05:03:56;;;;;;;;;63.00;47.00;;;;;8.03;59.27;102940.34;5083847;28;61788;-85
2022/01/25 05:06:22;;;;;;;;;59.67;47.33;;;;;7.97;59.87;102939.81;5081547;28;61895;-85
2022/01/25 05:08:52;;;;;;;;;50.33;41.67;;;;;7.94;59.57;102945.66;5082376;28;61896;-85
2022/01/25 05:11:31;;;;;;;;;49.67;46.00;;;;;7.96;60.04;102933.66;5081683;28;63675;-85
2022/01/25 05:16:38;;;;;;;;;67.00;48.00;;;;;8.05;59.80;102946.63;5083143;28;61859;-85
2022/01/25 05:22:04;;;;;;;;;67.00;50.33;;;;;8.08;59.92;102952.16;5082289;28;61784;-85
2022/01/25 05:22:07;;;;;;;;;75.33;59.67;;;;;7.96;60.15;102956.28;5082082;27;63269;-85
2022/01/25 05:24:36;;;;;;;;;76.00;54.00;;;;;7.83;60.83;102955.97;5083634;27;61911;-84
2022/01/25 05:27:03;;;;;;;;;79.33;57.33;;;;;7.83;61.28;102961.19;5081430;28;62126;-85
2022/01/25 05:29:28;;;;;;;;;84.33;58.33;;;;;7.78;60.94;102945.09;5083433;28;61748;-84
2022/01/25 05:31:54;;;;;;;;;80.67;60.00;;;;;7.79;61.38;102950.44;5082055;28;62851;-85
2022/01/25 05:34:19;;;;;;;;;73.00;56.00;;;;;7.72;61.77;102942.81;5081843;28;61917;-85
2022/01/25 05:36:45;;;;;;;;;76.00;56.00;;;;;7.78;61.76;102943.38;5081168;28;62208;-85
2022/01/25 05:39:12;;;;;;;;;73.33;49.00;;;;;7.95;61.56;102949.22;5083460;28;62201;-85
2022/01/25 05:41:40;;;;;;;;;81.33;56.00;;;;;7.94;61.61;102953.50;5098032;27;63663;-85
2022/01/25 05:44:25;;;;;;;;;70.00;52.67;;;;;7.97;61.24;102953.81;5082872;28;61745;-85
2022/01/25 05:49:23;;;;;;;;;68.67;52.67;;;;;8.14;60.90;102950.09;5082875;28;61935;-85
2022/01/25 05:51:49;;;;;;;;;70.00;55.33;;;;;8.19;61.09;102945.25;5081093;28;64528;-85
2022/01/25 05:54:15;;;;;;;;;68.33;55.00;;;;;8.26;60.92;102949.34;5082865;28;61980;-85
2022/01/25 05:56:41;;;;;;;;;62.00;45.67;;;;;8.25;60.46;102963.19;5082617;28;62027;-84
2022/01/25 05:59:06;;;;;;;;;71.33;52.67;;;;;8.27;60.88;102945.91;5082715;27;61742;-84
2022/01/25 06:01:34;;;;;;;;;64.00;52.33;;;;;8.36;60.08;102952.91;5082210;27;63144;-82
2022/01/25 06:04:00;;;;;;;;;80.33;55.00;;;;;8.39;60.10;102955.78;5082378;28;61930;-85
2022/01/25 06:06:25;;;;;;;;;68.00;51.00;;;;;8.42;60.62;102955.19;5097879;27;62169;-86
2022/01/25 06:08:51;;;;;;;;;66.00;48.67;;;;;8.43;60.12;102951.78;5099210;27;62111;-85
2022/01/25 06:11:16;;;;;;;;;68.67;50.00;;;;;8.39;60.75;102949.63;5098238;27;64094;-85
2022/01/25 06:13:42;;;;;;;;;76.33;54.33;;;;;8.41;60.64;102950.72;5082965;28;61908;-81
2022/01/25 06:16:07;;;;;;;;;72.33;52.33;;;;;8.49;60.42;102948.78;5082178;28;61987;-82
2022/01/25 06:18:33;;;;;;;;;72.33;52.67;;;;;8.53;60.56;102953.50;5082464;28;61967;-83
2022/01/25 06:20:58;;;;;;;;;74.67;54.00;;;;;8.46;60.31;102956.34;5081469;27;61854;-80
2022/01/25 06:23:24;;;;;;;;;68.00;49.00;;;;;8.45;60.24;102954.53;5082122;27;61930;-81
2022/01/25 06:25:49;;;;;;;;;66.67;51.33;;;;;8.39;59.66;102947.00;5097879;27;61825;-77
2022/01/25 06:28:16;;;;;;;;;73.00;53.00;;;;;8.28;60.36;102953.91;5082548;28;61722;-85
2022/01/25 06:30:41;;;;;;;;;71.00;49.67;;;;;8.15;61.34;102949.28;5079938;28;63742;-84
2022/01/25 06:33:08;;;;;;;;;68.33;50.67;;;;;8.21;61.05;102948.03;5079459;28;62016;-88
2022/01/25 06:35:38;;;;;;;;;68.00;53.00;;;;;8.27;60.50;102954.72;5103542;27;62237;-86
2022/01/25 06:38:06;;;;;;;;;77.00;54.00;;;;;8.14;60.81;102954.38;5081286;27;61716;-84
2022/01/25 06:40:32;;;;;;;;;69.33;51.00;;;;;8.10;61.24;102953.22;5087520;27;63422;-90
2022/01/25 06:42:58;;;;;;;;;69.67;50.67;;;;;8.11;60.78;102949.81;5079908;28;61920;-88
2022/01/25 06:45:24;;;;;;;;;73.00;53.33;;;;;8.14;61.67;102955.31;5079444;28;61805;-82
2022/01/25 06:47:51;;;;;;;;;76.33;52.00;;;;;8.19;60.99;102950.50;5080698;28;62132;-87
2022/01/25 06:50:19;;;;;;;;;73.67;54.00;;;;;8.21;60.82;102956.78;5080296;28;62702;-87
2022/01/25 06:52:46;;;;;;;;;72.67;54.00;;;;;8.13;60.65;102955.19;5096493;27;62195;-87
2022/01/25 06:55:14;;;;;;;;;69.00;55.67;;;;;8.19;61.14;102953.09;5085498;27;61838;-86
2022/01/25 06:57:41;;;;;;;;;64.00;48.00;;;;;7.98;60.59;102949.50;5081441;27;62016;-86
2022/01/25 07:00:27;;;;;;;;;70.33;50.67;;;;;7.96;61.86;102951.06;5096503;27;63324;-87
2022/01/25 07:02:52;;;;;;;;;73.00;51.33;;;;;7.93;61.79;102950.78;5084509;28;61978;-87
2022/01/25 07:05:18;;;;;;;;;70.00;48.67;;;;;7.86;62.02;102951.94;5100730;27;62102;-87
2022/01/25 07:07:45;;;;;;;;;63.33;50.33;;;;;7.94;61.84;102956.13;5083995;28;62268;-86
2022/01/25 07:10:10;;;;;;;;;52.33;33.33;;;;;7.86;61.73;102954.56;5100272;27;64242;-85
2022/01/25 07:12:36;;;;;;;;;79.33;55.00;;;;;7.85;61.75;102962.25;5085017;27;61963;-86
2022/01/25 07:15:02;;;;;;;;;71.00;51.33;;;;;7.86;62.02;102954.56;5109416;27;61686;-86
2022/01/25 07:17:28;;;;;;;;;71.33;51.33;;;;;7.88;61.68;102952.97;5083308;28;62203;-87
2022/01/25 07:19:53;;;;;;;;;71.33;54.00;;;;;7.94;61.57;102952.59;5085211;28;61770;-86
2022/01/25 07:22:19;;;;;;;;;73.33;55.00;;;;;7.83;61.49;102950.72;5085744;28;61756;-87
2022/01/25 07:24:44;;;;;;;;;74.33;55.00;;;;;7.79;62.38;102952.13;5085681;28;61965;-87
2022/01/25 07:27:10;;;;;;;;;72.00;53.00;;;;;7.83;62.14;102954.25;5085055;27;61771;-86
2022/01/25 07:29:36;;;;;;;;;77.00;51.33;;;;;7.76;62.04;102964.94;5084610;28;61832;-80
2022/01/25 07:32:02;;;;;;;;;72.00;51.00;;;;;7.61;62.19;102967.09;5100589;27;61942;-83
2022/01/25 07:34:28;;;;;;;;;75.67;53.00;;;;;7.57;62.28;102960.66;5100969;27;61852;-80
2022/01/25 07:36:53;;;;;;;;;79.33;52.33;;;;;7.70;62.15;102970.53;5084187;28;61968;-80
2022/01/25 07:39:19;;;;;;;;;82.67;54.67;;;;;7.72;62.51;102968.97;5084023;28;61770;-82
2022/01/25 07:41:46;;;;;;;;;76.00;51.00;;;;;7.80;62.37;102974.91;5084803;28;61906;-80
2022/01/25 07:44:12;;;;;;;;;68.67;49.00;;;;;7.75;62.18;102981.41;5100523;27;61799;-87
2022/01/25 07:46:38;;;;;;;;;72.67;53.00;;;;;7.73;62.44;102982.94;5081761;28;62051;-87
2022/01/25 07:49:06;;;;;;;;;77.00;53.33;;;;;7.75;62.25;102977.06;5095465;27;63816;-87
2022/01/25 07:51:32;;;;;;;;;70.00;54.67;;;;;7.82;62.65;102982.88;5078504;28;61993;-87
2022/01/25 07:53:59;;;;;;;;;81.00;55.67;;;;;7.86;61.63;102984.97;5084045;27;61989;-87
2022/01/25 07:56:25;;;;;;;;;76.00;50.33;;;;;7.82;61.53;102990.72;5099243;27;62206;-86
2022/01/25 07:58:51;;;;;;;;;76.33;51.33;;;;;7.80;62.08;102995.81;5083706;28;61936;-87
2022/01/25 08:01:17;;;;;;;;;70.67;54.67;;;;;7.84;61.98;102991.75;5084089;27;61853;-86
2022/01/25 08:03:43;;;;;;;;;77.00;56.00;;;;;7.86;62.16;102990.22;5082946;27;62147;-86
2022/01/25 08:06:09;;;;;;;;;77.33;54.67;;;;;7.90;62.12;102997.56;5083672;27;62029;-86
2022/01/25 08:08:35;;;;;;;;;79.33;54.67;;;;;7.86;62.32;102999.00;5081996;28;63642;-86
2022/01/25 08:11:01;;;;;;;;;62.00;38.33;;;;;7.71;62.34;102988.06;5083955;27;61867;-86
2022/01/25 08:13:26;;;;;;;;;84.00;61.00;;;;;7.69;62.27;102993.91;5090029;27;62253;-87
2022/01/25 08:15:52;;;;;;;;;74.00;53.00;;;;;7.81;62.78;102999.34;5078936;28;62235;-86
2022/01/25 08:18:17;;;;;;;;;71.33;54.00;;;;;7.89;62.85;102995.75;5080813;28;63494;-86
2022/01/25 08:20:43;;;;;;;;;87.67;62.67;;;;;7.74;62.24;102996.16;5082109;28;62159;-87
2022/01/25 08:23:09;;;;;;;;;99.00;66.33;;;;;7.72;62.67;103000.34;5083615;28;61884;-86
2022/01/25 08:25:34;;;;;;;;;101.33;73.67;;;;;7.75;62.53;103008.44;5082074;28;61780;-87
2022/01/25 08:28:00;;;;;;;;;84.33;59.00;;;;;7.80;62.56;103008.91;5066899;27;61914;-86
2022/01/25 08:30:26;;;;;;;;;70.00;51.67;;;;;7.88;62.51;102999.13;5078767;28;61890;-86
2022/01/25 08:32:51;;;;;;;;;75.33;57.33;;;;;7.86;62.66;103001.63;5063720;28;61841;-86
2022/01/25 08:35:17;;;;;;;;;74.00;56.67;;;;;7.82;62.54;103004.72;5064014;28;62019;-85
2022/01/25 08:37:44;;;;;;;;;85.00;60.33;;;;;7.87;62.74;103002.53;5080924;28;62620;-85
2022/01/25 08:40:10;;;;;;;;;81.67;57.00;;;;;7.90;62.26;103002.78;5083920;27;62064;-79
2022/01/25 08:42:36;;;;;;;;;76.00;55.67;;;;;7.87;62.24;102998.22;5083705;28;62174;-83
2022/01/25 08:45:03;;;;;;;;;84.67;52.00;;;;;7.92;62.55;103004.75;5079414;28;63070;-82
2022/01/25 08:47:29;;;;;;;;;81.00;61.00;;;;;7.86;62.73;103008.50;5081064;28;61904;-83
2022/01/25 08:49:54;;;;;;;;;83.00;59.33;;;;;7.92;62.68;103003.84;5082967;27;61891;-83
2022/01/25 08:52:20;;;;;;;;;77.00;56.67;;;;;7.89;62.72;103004.50;5098887;27;61898;-83
2022/01/25 08:54:45;;;;;;;;;76.67;51.67;;;;;7.85;62.76;103007.59;5083363;28;61722;-83
2022/01/25 08:57:11;;;;;;;;;70.67;50.00;;;;;7.79;62.56;103001.81;5081969;27;61780;-82
2022/01/25 08:59:36;;;;;;;;;74.67;56.33;;;;;7.72;62.61;103007.28;5098244;27;61987;-83
2022/01/25 09:02:03;;;;;;;;;75.33;53.00;;;;;7.71;62.92;103013.25;5083008;28;61682;-83
2022/01/25 09:04:28;;;;;;;;;79.33;55.33;;;;;7.57;62.75;103002.47;5083193;27;61867;-82
2022/01/25 09:06:54;;;;;;;;;74.00;54.67;;;;;7.55;62.35;103017.06;5077628;28;64842;-83
2022/01/25 09:09:20;;;;;;;;;75.33;52.33;;;;;7.61;62.67;103013.22;5098577;27;61841;-82
2022/01/25 09:11:45;;;;;;;;;73.33;50.33;;;;;7.65;62.31;102997.00;5084614;27;61835;-82
2022/01/25 09:14:11;;;;;;;;;76.00;54.33;;;;;7.65;62.38;103008.41;5062949;28;61892;-82
2022/01/25 09:16:38;;;;;;;;;71.00;53.00;;;;;7.71;62.35;103010.66;5062254;28;62758;-77
2022/01/25 09:19:05;;;;;;;;;77.00;56.67;;;;;7.78;62.23;103013.97;5066837;27;61643;-79
2022/01/25 09:21:30;;;;;;;;;67.00;48.67;;;;;7.88;61.59;103006.97;5097178;27;62077;-79
2022/01/25 09:23:56;;;;;;;;;76.33;55.67;;;;;7.88;61.56;103009.56;5083727;27;62140;-80
2022/01/25 09:26:22;;;;;;;;;72.67;52.33;;;;;7.88;61.66;103017.41;5094388;27;63088;-80
2022/01/25 09:28:49;;;;;;;;;73.33;51.67;;;;;7.89;61.37;103027.13;5077849;28;61826;-80
2022/01/25 09:31:16;;;;;;;;;71.33;53.33;;;;;7.73;61.72;103023.09;5062687;28;61826;-79
2022/01/25 09:33:42;;;;;;;;;71.33;53.33;;;;;7.75;61.89;103026.75;5081654;28;61841;-80
2022/01/25 09:36:08;;;;;;;;;87.67;56.00;;;;;7.62;62.59;103035.94;5081570;28;63017;-80
2022/01/25 09:38:33;;;;;;;;;72.00;51.33;;;;;7.47;62.40;103036.34;5082810;28;61869;-81
2022/01/25 09:40:59;;;;;;;;;67.67;51.33;;;;;7.72;62.64;103039.53;5082228;28;61876;-81
2022/01/25 09:43:26;;;;;;;;;72.33;50.33;;;;;7.82;62.39;103037.78;5081280;28;61893;-80
2022/01/25 09:45:51;;;;;;;;;75.00;51.00;;;;;7.78;61.63;103041.81;5082004;27;62140;-86
2022/01/25 09:48:17;;;;;;;;;72.67;50.67;;;;;7.91;60.99;103036.94;5082937;27;61911;-86
2022/01/25 09:50:44;;;;;;;;;90.33;60.00;;;;;8.03;61.06;103038.81;5083061;27;61705;-82
2022/01/25 09:53:09;;;;;;;;;80.00;58.00;;;;;8.07;60.94;103044.47;5083017;27;62032;-79
2022/01/25 09:55:41;;;;;;;;;66.67;49.67;;;;;8.10;61.15;103041.22;5080324;28;63947;-89
2022/01/25 09:58:09;;;;;;;;;61.00;48.33;;;;;8.13;61.01;103033.66;5098375;27;61714;-82
2022/01/25 10:00:36;;;;;;;;;67.33;53.67;;;;;8.15;60.79;103038.22;5098517;27;61909;-82
2022/01/25 10:03:21;;;;;;;;;77.00;58.67;;;;;8.01;60.94;103049.13;5081620;28;61983;-82
2022/01/25 10:05:49;;;;;;;;;66.67;51.33;;;;;7.87;61.03;103026.97;5081217;27;62716;-80
2022/01/25 10:08:20;;;;;;;;;76.33;55.00;;;;;8.04;61.45;103043.28;5081547;27;62218;-84
2022/01/25 10:10:50;;;;;;;;;69.00;56.67;;;;;8.09;60.99;103049.84;5081535;27;61960;-84
2022/01/25 10:13:20;;;;;;;;;101.33;72.00;;;;;8.11;61.12;103043.06;5080781;28;61929;-83
2022/01/25 10:15:48;;;;;;;;;91.33;65.33;;;;;8.16;60.95;103042.69;5081696;27;62116;-84
2022/01/25 10:18:14;;;;;;;;;96.33;70.67;;;;;8.26;60.67;103044.44;5081670;27;61851;-84
2022/01/25 10:20:45;;;;;;;;;86.33;59.67;;;;;8.25;60.92;103047.84;5080454;27;61858;-82
2022/01/25 10:23:13;;;;;;;;;79.00;58.00;;;;;8.28;60.67;103048.09;5081405;28;62090;-83
2022/01/25 10:25:42;;;;;;;;;77.33;59.33;;;;;8.21;60.40;103050.06;5079408;27;62608;-84
2022/01/25 10:28:13;;;;;;;;;93.33;62.00;;;;;8.10;61.18;103051.69;5105591;27;62128;-78
2022/01/25 10:30:51;;;;;;;;;83.67;56.33;;;;;8.01;60.90;103054.34;5080119;28;61979;-79
2022/01/25 10:33:25;;;;;;;;;82.67;63.67;;;;;7.97;60.94;103047.03;5078214;28;62050;-78
2022/01/25 10:35:51;;;;;;;;;78.67;57.00;;;;;8.12;61.01;103055.34;5076844;28;61914;-78
2022/01/25 10:38:29;;;;;;;;;68.67;53.67;;;;;8.11;61.49;103053.50;5080357;27;61867;-79
2022/01/25 10:40:58;;;;;;;;;81.67;53.67;;;;;8.10;61.12;103047.38;5078276;28;62173;-78
2022/01/25 10:43:26;;;;;;;;;74.67;55.00;;;;;8.15;61.38;103055.63;5078816;28;62526;-78
2022/01/25 10:46:08;;;;;;;;;72.33;56.00;;;;;8.14;61.33;103046.88;5100374;27;63651;-78
2022/01/25 10:48:34;;;;;;;;;75.33;53.67;;;;;8.31;60.90;103057.91;5078868;28;61937;-78
2022/01/25 10:51:09;;;;;;;;;73.33;53.33;;;;;8.44;60.17;103058.31;5079531;28;62561;-78
2022/01/25 10:53:36;;;;;;;;;71.33;48.00;;;;;8.43;60.02;103040.75;5076231;28;61961;-79
2022/01/25 10:56:03;;;;;;;;;82.33;55.67;;;;;8.63;59.88;103054.69;5084257;27;63278;-79
2022/01/25 10:58:29;;;;;;;;;76.33;53.33;;;;;8.65;60.23;103053.13;5093186;27;62038;-78
2022/01/25 11:00:58;;;;;;;;;83.33;59.00;;;;;8.56;59.98;103051.53;5079899;28;62189;-78
2022/01/25 11:03:34;;;;;;;;;71.67;53.00;;;;;8.49;60.06;103050.88;5102588;27;61785;-78
2022/01/25 11:06:20;;;;;;;;;73.33;54.33;;;;;8.57;59.66;103045.53;5076820;28;61944;-78
2022/01/25 11:08:50;;;;;;;;;71.33;50.00;;;;;8.65;60.53;103040.03;5076462;28;61814;-79
2022/01/25 11:11:29;;;;;;;;;76.00;52.67;;;;;8.57;59.97;103045.53;5078993;27;62016;-85
2022/01/25 11:14:00;;;;;;;;;90.33;60.33;;;;;8.60;60.10;103052.72;5077554;28;61942;-85
2022/01/25 11:16:26;;;;;;;;;68.67;53.67;;;;;8.43;60.13;103043.38;5093522;27;63724;-86
2022/01/25 11:18:51;;;;;;;;;63.33;50.67;;;;;8.53;60.48;103037.28;5078644;27;61849;-85
2022/01/25 11:21:18;;;;;;;;;70.00;51.67;;;;;8.62;59.64;103040.69;5078818;27;61893;-85
2022/01/25 11:23:45;;;;;;;;;72.00;56.00;;;;;8.66;60.19;103041.91;5093807;27;62443;-85
2022/01/25 11:26:14;;;;;;;;;76.67;53.33;;;;;8.64;59.64;103046.97;5075420;28;63813;-85
2022/01/25 11:28:41;;;;;;;;;68.00;50.33;;;;;8.66;60.09;103040.19;5094807;27;62171;-86
2022/01/25 11:31:12;;;;;;;;;72.00;55.33;;;;;8.78;60.43;103046.50;5079554;28;62025;-85
2022/01/25 11:33:44;;;;;;;;;71.33;49.67;;;;;8.91;59.65;103043.28;5093526;27;61918;-80
2022/01/25 11:36:11;;;;;;;;;75.67;60.33;;;;;8.80;60.10;103042.31;5074476;27;62889;-82
2022/01/25 11:38:48;;;;;;;;;77.33;52.33;;;;;8.82;60.12;103047.69;5076312;27;61885;-80
2022/01/25 11:41:19;;;;;;;;;85.33;55.67;;;;;8.74;59.86;103047.03;5094250;27;61921;-80
2022/01/25 11:44:12;;;;;;;;;80.33;56.67;;;;;8.70;60.48;103044.91;5097674;27;62079;-80
2022/01/25 11:46:41;;;;;;;;;73.67;54.33;;;;;8.68;60.26;103051.72;5080640;28;62925;-82
2022/01/25 11:49:15;;;;;;;;;86.33;62.00;;;;;8.73;60.78;103049.50;5085091;28;62107;-86
2022/01/25 11:51:42;;;;;;;;;79.33;54.67;;;;;8.75;60.15;103053.16;5084426;27;61815;-81
2022/01/25 11:54:08;;;;;;;;;72.00;54.33;;;;;8.82;59.95;103050.28;5085008;28;62113;-79
2022/01/25 11:56:36;;;;;;;;;68.33;49.00;;;;;8.68;60.08;103037.72;5082036;28;63820;-75
2022/01/25 11:59:03;;;;;;;;;80.33;54.33;;;;;8.66;60.38;103037.56;5080616;27;61820;-79
2022/01/25 12:01:28;;;;;;;;;68.00;48.33;;;;;8.79;60.17;103040.47;5081946;27;61972;-82
2022/01/25 12:03:59;;;;;;;;;72.33;53.00;;;;;9.04;60.38;103031.22;5084930;28;61642;-81
2022/01/25 12:06:33;;;;;;;;;65.00;49.00;;;;;9.23;59.24;103021.53;5114164;27;63472;-82
2022/01/25 12:14:26;;;;;;;;;78.00;53.67;;;;;9.09;59.48;103036.09;5084974;27;61828;-87
2022/01/25 12:17:03;;;;;;;;;68.33;50.00;;;;;9.06;60.04;103027.03;5083495;27;62621;-82
2022/01/25 12:19:34;;;;;;;;;63.33;50.00;;;;;8.90;60.18;103024.78;5085317;27;61863;-86
2022/01/25 12:22:15;;;;;;;;;72.33;54.00;;;;;8.89;60.50;103029.13;5078390;28;61992;-87
2022/01/25 12:25:14;;;;;;;;;56.00;45.33;;;;;8.95;60.20;103018.25;5078980;27;62962;-81
2022/01/25 12:27:36;;;;;;;;;78.33;56.67;;;;;8.84;59.93;103005.91;5080442;27;63095;-81
2022/01/25 12:30:15;;;;;;;;;52.67;44.33;;;;;8.94;60.58;103013.81;5080524;28;62068;-81
2022/01/25 12:32:49;;;;;;;;;65.67;49.00;;;;;9.05;60.00;103012.09;5098440;27;62005;-81
2022/01/25 12:35:19;;;;;;;;;75.00;52.67;;;;;9.19;59.64;103002.03;5081642;28;61748;-83
2022/01/25 12:37:54;;;;;;;;;75.33;55.00;;;;;9.22;59.30;103004.00;5081674;28;62054;-82
2022/01/25 12:40:25;;;;;;;;;74.67;48.67;;;;;9.21;59.14;103004.75;5074064;27;62395;-81
2022/01/25 12:42:51;;;;;;;;;77.33;55.00;;;;;9.15;59.71;103002.56;5089000;27;61988;-82
2022/01/25 12:45:18;;;;;;;;;61.00;45.67;;;;;9.12;59.71;102999.66;5083545;27;62341;-78
2022/01/25 12:47:55;;;;;;;;;84.00;54.67;;;;;9.07;59.79;103010.53;5098773;27;64796;-82
2022/01/25 12:50:22;;;;;;;;;59.67;44.67;;;;;8.89;60.14;103005.56;5082494;27;62152;-85
2022/01/25 12:52:48;;;;;;;;;76.33;53.67;;;;;9.01;60.03;102997.81;5075365;28;61820;-81
2022/01/25 12:55:15;;;;;;;;;72.00;50.33;;;;;9.07;59.94;102992.19;5079741;27;62538;-83
2022/01/25 12:57:50;;;;;;;;;68.67;50.00;;;;;9.07;60.25;102990.50;5104166;27;63185;-84
2022/01/25 13:00:16;;;;;;;;;74.00;53.67;;;;;8.97;60.47;102990.47;5081356;28;61977;-84
2022/01/25 13:02:42;;;;;;;;;79.67;53.67;;;;;9.04;60.42;103000.72;5083373;27;61800;-84
2022/01/25 13:05:20;;;;;;;;;74.33;48.00;;;;;9.10;60.14;102995.97;5082259;28;61755;-84
2022/01/25 13:07:46;;;;;;;;;77.33;53.67;;;;;8.95;60.26;102999.91;5080461;28;64199;-83
2022/01/25 13:10:26;;;;;;;;;83.00;51.67;;;;;9.01;60.22;102995.19;5080650;28;62059;-84